Time;durP1;ratioP1;P1;durP2;ratioP2;P2;SDS_P1;SDS_P2;PMS_P1;PMS_P2;Temp;Humidity;BMP_temperature;BMP_pressure;BME280_temperature;BME280_humidity;BME280_pressure;Samples;Min_cycle;Max_cycle;Signal;HPM_P1;HPM_P2
2022/09/10 07:09:01;;;;;;;20.70;16.20;;;19.20;77.10;;;;;;6098873;23;20042;-77
2022/09/10 07:11:31;;;;;;;19.25;15.52;;;19.20;77.10;;;;;;6100848;23;20022;-79
2022/09/10 07:13:58;;;;;;;18.40;14.50;;;19.20;77.20;;;;;;6100697;23;20026;-78
2022/09/10 07:16:26;;;;;;;23.08;16.02;;;19.20;77.20;;;;;;6075945;23;20026;-79
2022/09/10 07:18:55;;;;;;;19.63;15.45;;;19.20;77.20;;;;;;6100688;23;20365;-78
2022/09/10 07:21:22;;;;;;;19.10;15.18;;;19.20;77.20;;;;;;6074534;23;20090;-78
2022/09/10 07:23:48;;;;;;;22.75;16.33;;;19.20;77.20;;;;;;6075730;23;20022;-79
2022/09/10 07:26:17;;;;;;;24.52;16.13;;;19.20;77.30;;;;;;6100500;23;20023;-79
2022/09/10 07:28:43;;;;;;;19.38;15.35;;;19.20;77.30;;;;;;6100461;23;20019;-80
2022/09/10 07:31:30;;;;;;;21.48;14.68;;;19.30;77.40;;;;;;6074789;23;20022;-80
2022/09/10 07:33:56;;;;;;;21.80;15.00;;;19.30;77.40;;;;;;6075209;23;20027;-76
2022/09/10 07:36:23;;;;;;;18.75;15.05;;;19.20;77.40;;;;;;6101120;23;20105;-79
2022/09/10 07:38:54;;;;;;;23.90;15.05;;;19.30;77.50;;;;;;6075303;23;20026;-76
2022/09/10 07:41:20;;;;;;;23.60;14.98;;;19.20;77.50;;;;;;6100464;23;20090;-78
2022/09/10 07:43:45;;;;;;;21.95;15.07;;;19.30;77.60;;;;;;6100037;23;20018;-78
2022/09/10 07:46:19;;;;;;;19.38;14.80;;;19.30;77.60;;;;;;6100056;23;20034;-76
2022/09/10 07:48:53;;;;;;;28.90;14.48;;;19.30;77.60;;;;;;6076131;23;20022;-79
2022/09/10 07:51:18;;;;;;;;;;;19.30;77.50;;;;;;6100159;23;20023;-77
2022/09/10 07:53:45;;;;;;;23.83;13.30;;;19.30;77.40;;;;;;6099979;23;19968;-77
2022/09/10 07:56:11;;;;;;;24.23;13.30;;;19.30;77.70;;;;;;6050764;23;20018;-81
2022/09/10 07:58:46;;;;;;;21.63;15.70;;;19.30;77.70;;;;;;6076455;23;20021;-80
2022/09/10 08:01:12;;;;;;;20.45;14.32;;;19.40;77.30;;;;;;6074880;23;20049;-78
2022/09/10 08:03:39;;;;;;;17.92;13.93;;;19.40;77.40;;;;;;6100039;23;20493;-78
2022/09/10 08:06:06;;;;;;;18.23;13.18;;;19.40;77.50;;;;;;6074912;23;20033;-80
2022/09/10 08:08:33;;;;;;;15.60;12.07;;;19.40;77.50;;;;;;6122459;23;20018;-79
2022/09/10 08:11:11;;;;;;;16.55;12.43;;;19.40;77.50;;;;;;6104120;23;20044;-79
2022/09/10 08:13:37;;;;;;;16.67;11.48;;;19.40;77.50;;;;;;6129352;23;20029;-77
2022/09/10 08:16:08;;;;;;;22.05;10.98;;;19.40;77.50;;;;;;6108124;23;20096;-77
2022/09/10 08:18:34;;;;;;;18.02;10.80;;;19.50;77.50;;;;;;6134137;23;20468;-78
2022/09/10 08:21:01;;;;;;;18.42;10.30;;;19.50;78.20;;;;;;6132817;23;20115;-80
2022/09/10 08:23:28;;;;;;;15.43;11.68;;;19.50;77.50;;;;;;6132993;23;20028;-79
2022/09/10 08:25:54;;;;;;;17.23;13.35;;;19.50;77.30;;;;;;6133143;23;20028;-78
2022/09/10 08:28:21;;;;;;;17.65;13.57;;;19.60;77.30;;;;;;6108267;23;20088;-78
2022/09/10 08:30:56;;;;;;;17.85;13.77;;;19.60;77.00;;;;;;6133128;23;20013;-77
2022/09/10 08:33:23;;;;;;;20.50;13.50;;;19.60;76.80;;;;;;6109460;23;20025;-78
2022/09/10 08:35:57;;;;;;;18.98;13.38;;;19.60;76.80;;;;;;6159374;23;20014;-78
2022/09/10 08:38:30;;;;;;;18.27;12.65;;;19.60;76.90;;;;;;6159073;23;20096;-79
2022/09/10 08:40:58;;;;;;;18.67;14.07;;;19.60;76.90;;;;;;6132775;23;20017;-79
2022/09/10 08:43:41;;;;;;;16.60;13.30;;;19.60;76.90;;;;;;6108206;23;20033;-77
2022/09/10 08:46:20;;;;;;;20.25;13.50;;;19.60;76.80;;;;;;6158660;23;20017;-79
2022/09/10 08:48:49;;;;;;;22.65;14.80;;;19.60;77.00;;;;;;6108081;23;20429;-79
2022/09/10 08:51:26;;;;;;;18.45;13.05;;;19.60;77.10;;;;;;6133142;23;20115;-77
2022/09/10 08:54:01;;;;;;;18.30;13.20;;;19.60;77.20;;;;;;6132365;23;20418;-79
2022/09/10 08:56:37;;;;;;;18.40;13.07;;;19.60;77.30;;;;;;6132921;23;20076;-78
2022/09/10 08:59:29;;;;;;;19.13;13.30;;;19.60;77.30;;;;;;6132415;23;20417;-78
2022/09/10 09:02:22;;;;;;;17.20;12.75;;;19.60;77.60;;;;;;6105777;23;20506;-79
2022/09/10 09:04:57;;;;;;;23.10;13.10;;;19.60;77.70;;;;;;6108202;23;20021;-78
2022/09/10 09:07:38;;;;;;;21.08;13.68;;;19.60;77.80;;;;;;6157376;23;20024;-79
2022/09/10 09:10:24;;;;;;;26.05;13.70;;;19.60;77.70;;;;;;6132495;23;20029;-81
2022/09/10 09:12:55;;;;;;;16.10;12.30;;;19.70;77.70;;;;;;6117213;23;20025;-77
2022/09/10 09:15:58;;;;;;;28.60;12.32;;;19.70;77.70;;;;;;6132198;23;20024;-78
2022/09/10 09:18:48;;;;;;;25.08;13.93;;;19.70;77.80;;;;;;6116621;23;20021;-76
2022/09/10 09:21:38;;;;;;;19.05;12.70;;;19.70;77.80;;;;;;6132168;23;20318;-79
2022/09/10 09:24:27;;;;;;;21.27;12.25;;;19.70;77.70;;;;;;6131830;23;20021;-79
2022/09/10 09:27:00;;;;;;;17.00;11.93;;;19.70;77.80;;;;;;6132050;23;20020;-79
2022/09/10 09:55:27;;;;;;;23.38;11.48;;;19.90;77.50;;;;;;6039259;23;20045;-77
2022/09/10 09:58:20;;;;;;;22.77;11.82;;;19.90;77.50;;;;;;6039412;23;20022;-75
2022/09/10 10:01:14;;;;;;;17.20;10.70;;;19.90;77.40;;;;;;6055997;23;20381;-78
2022/09/10 10:03:49;;;;;;;;;;;19.90;77.30;;;;;;6145677;23;20017;-78
2022/09/10 10:06:16;;;;;;;15.88;8.90;;;19.90;77.30;;;;;;6132384;23;19944;-78
2022/09/10 10:08:44;;;;;;;21.58;10.55;;;19.90;77.40;;;;;;6130335;23;20018;-78
2022/09/10 10:11:14;;;;;;;19.65;10.20;;;19.90;77.30;;;;;;6106535;23;20025;-78
2022/09/10 10:13:43;;;;;;;18.98;9.63;;;19.90;77.30;;;;;;6157617;23;20049;-77
2022/09/10 10:16:36;;;;;;;19.42;13.95;;;19.90;77.40;;;;;;6156329;23;20013;-78
2022/09/10 10:19:22;;;;;;;20.77;14.23;;;19.90;77.30;;;;;;6157475;23;20440;-79
2022/09/10 10:21:48;;;;;;;23.70;15.52;;;19.90;77.20;;;;;;6158197;23;20013;-78
2022/09/10 10:24:32;;;;;;;18.60;14.77;;;19.90;77.20;;;;;;6157661;23;20104;-77
2022/09/10 10:26:58;;;;;;;21.13;14.93;;;19.90;77.20;;;;;;6157893;23;20024;-78
2022/09/10 10:29:26;;;;;;;20.30;14.10;;;19.90;77.20;;;;;;6131830;23;20025;-74
2022/09/10 10:31:52;;;;;;;23.08;14.05;;;19.90;77.20;;;;;;6157537;23;20311;-77
2022/09/10 10:34:36;;;;;;;19.63;14.25;;;19.90;77.20;;;;;;6157766;23;20020;-78
2022/09/10 10:37:07;;;;;;;17.88;13.68;;;19.90;77.30;;;;;;6131739;23;20028;-73
2022/09/10 10:39:59;;;;;;;18.77;12.98;;;20.00;77.50;;;;;;6131894;23;20013;-74
2022/09/10 10:42:39;;;;;;;16.83;10.73;;;20.00;77.50;;;;;;6157528;23;20449;-76
2022/09/10 10:45:14;;;;;;;13.75;9.23;;;20.00;77.50;;;;;;6131951;23;20017;-75
2022/09/10 10:48:02;;;;;;;15.60;9.43;;;19.90;77.50;;;;;;6158784;23;20354;-75
2022/09/10 10:50:43;;;;;;;23.10;10.32;;;20.00;77.50;;;;;;6158284;23;20021;-79
2022/09/10 10:53:22;;;;;;;17.88;8.40;;;20.00;77.70;;;;;;6132344;23;20022;-78
2022/09/10 10:56:10;;;;;;;13.40;7.90;;;20.00;77.70;;;;;;6157812;23;20079;-81
2022/09/10 10:59:08;;;;;;;24.17;9.65;;;20.00;77.70;;;;;;6157652;23;20009;-79
2022/09/10 11:01:59;;;;;;;22.15;7.95;;;20.00;77.90;;;;;;6132905;23;20021;-79
2022/09/10 11:04:28;;;;;;;23.17;9.43;;;20.10;77.80;;;;;;6156553;23;20018;-78
2022/09/10 11:07:11;;;;;;;15.18;9.18;;;20.10;77.80;;;;;;6157482;23;20018;-79
2022/09/10 11:09:50;;;;;;;15.32;9.70;;;20.10;77.70;;;;;;6131637;23;20026;-77
2022/09/10 11:12:25;;;;;;;15.82;8.15;;;20.10;77.50;;;;;;6157946;23;20029;-74
2022/09/10 11:15:43;;;;;;;22.15;8.68;;;20.10;77.40;;;;;;6157314;23;20021;-74
2022/09/10 11:18:27;;;;;;;16.67;8.73;;;20.20;77.30;;;;;;6146991;23;20057;-79
2022/09/10 11:21:03;;;;;;;18.60;10.65;;;20.20;77.40;;;;;;6132303;23;20407;-80
2022/09/10 11:23:53;;;;;;;21.10;14.05;;;20.20;77.10;;;;;;6157647;23;20029;-79
2022/09/10 11:26:30;;;;;;;20.90;13.73;;;20.20;77.10;;;;;;6157992;23;20017;-79
2022/09/10 11:29:08;;;;;;;22.27;13.23;;;20.20;76.90;;;;;;6159394;23;20021;-80
2022/09/10 11:31:40;;;;;;;19.48;12.70;;;20.20;76.70;;;;;;6134104;23;20029;-79
2022/09/10 11:34:17;;;;;;;18.35;12.38;;;20.20;76.50;;;;;;6109090;23;20061;-79
2022/09/10 11:36:50;;;;;;;15.85;11.27;;;20.20;76.40;;;;;;6159052;23;20311;-79
2022/09/10 11:39:30;;;;;;;18.65;11.85;;;20.20;76.50;;;;;;6159290;23;20013;-81
2022/09/10 11:42:00;;;;;;;16.02;12.10;;;20.20;76.40;;;;;;6158777;23;20024;-78
2022/09/10 11:44:50;;;;;;;17.92;11.02;;;20.20;76.50;;;;;;6159201;23;20009;-77
2022/09/10 11:47:24;;;;;;;15.27;10.57;;;20.20;76.40;;;;;;6132641;23;20029;-78
2022/09/10 11:50:20;;;;;;;13.30;8.68;;;20.20;76.50;;;;;;6159088;23;20072;-79
2022/09/10 11:52:46;;;;;;;11.57;7.95;;;20.20;76.50;;;;;;6159459;23;20024;-80
2022/09/10 11:55:16;;;;;;;16.40;8.80;;;20.20;76.60;;;;;;6158733;23;20027;-78
2022/09/10 11:57:57;;;;;;;16.33;8.10;;;20.30;76.70;;;;;;6159049;23;20092;-77
2022/09/10 12:00:24;;;;;;;11.68;8.13;;;20.20;76.60;;;;;;6159480;23;20017;-79
2022/09/10 12:03:15;;;;;;;12.13;7.90;;;20.20;76.70;;;;;;6158753;23;20031;-77
2022/09/10 12:06:08;;;;;;;12.48;7.47;;;20.30;76.70;;;;;;6132909;23;20072;-80
2022/09/10 13:28:32;;;;;;;16.80;6.93;;;20.50;76.00;;;;;;6099096;23;20360;-73
2022/09/10 13:31:03;;;;;;;15.38;10.68;;;20.50;76.10;;;;;;6049288;23;20145;-80
2022/09/10 13:33:33;;;;;;;16.55;11.45;;;20.50;76.30;;;;;;6099340;23;20033;-74
2022/09/10 13:36:15;;;;;;;21.67;11.48;;;20.50;75.80;;;;;;6099654;23;20030;-76
2022/09/10 13:38:56;;;;;;;16.88;10.38;;;20.50;75.70;;;;;;6098843;23;20014;-73
2022/09/10 13:42:00;;;;;;;19.92;6.97;;;20.50;75.80;;;;;;6099249;23;20018;-76
2022/09/10 13:45:03;;;;;;;10.30;6.60;;;20.50;75.70;;;;;;6056251;23;20089;-77
2022/09/10 13:47:47;;;;;;;8.25;6.68;;;20.50;75.90;;;;;;6098650;23;20022;-75
2022/09/10 13:50:33;;;;;;;12.30;5.63;;;20.50;76.00;;;;;;6098852;23;20026;-78
2022/09/10 13:53:02;;;;;;;15.45;7.18;;;20.50;75.90;;;;;;6099232;23;20022;-76
2022/09/10 13:55:30;;;;;;;12.63;7.53;;;20.50;76.00;;;;;;6098882;23;20018;-75
2022/09/10 13:58:15;;;;;;;17.40;7.07;;;20.50;76.00;;;;;;6070311;23;20460;-80
2022/09/10 14:00:59;;;;;;;15.88;8.43;;;20.50;76.00;;;;;;6096755;23;20524;-85
2022/09/10 14:03:33;;;;;;;15.10;8.57;;;20.50;75.90;;;;;;6098306;23;20503;-73
2022/09/10 14:06:09;;;;;;;14.27;8.65;;;20.50;75.90;;;;;;6098807;23;20018;-76
2022/09/10 14:09:00;;;;;;;32.55;10.18;;;20.50;75.90;;;;;;6098546;23;20015;-75
2022/09/10 14:11:28;;;;;;;16.55;8.85;;;20.50;76.00;;;;;;6097652;23;20105;-78
2022/09/10 14:14:24;;;;;;;25.40;9.05;;;20.50;76.00;;;;;;6099116;23;20056;-78
2022/09/10 14:17:09;;;;;;;17.40;7.90;;;20.60;76.00;;;;;;6049890;23;20022;-80
2022/09/10 14:20:37;;;;;;;11.85;8.88;;;20.60;76.10;;;;;;6098971;23;20010;-83
2022/09/10 14:23:15;;;;;;;14.15;10.18;;;20.60;75.60;;;;;;5955123;24;20016;-81
2022/09/10 14:29:28;;;;;;;15.00;10.95;;;20.50;74.80;;;;;;5950450;23;20295;-80
2022/09/10 14:32:40;;;;;;;15.88;10.23;;;20.60;74.80;;;;;;5983374;24;20028;-84
2022/09/10 14:35:37;;;;;;;13.85;9.95;;;20.50;74.80;;;;;;5982703;24;20394;-84
2022/09/10 14:38:23;;;;;;;11.98;9.77;;;20.50;74.50;;;;;;5982647;24;20060;-75
2022/09/10 16:28:42;;;;;;;14.13;8.57;;;20.80;74.90;;;;;;6178963;23;20285;-77
2022/09/10 16:31:22;;;;;;;10.52;8.05;;;20.80;74.70;;;;;;6162224;23;20029;-80
2022/09/10 16:33:49;;;;;;;10.70;8.10;;;20.80;74.60;;;;;;6162718;23;20017;-79
2022/09/10 16:36:15;;;;;;;9.65;8.02;;;20.80;74.50;;;;;;6188016;23;20059;-77
2022/09/10 16:38:42;;;;;;;13.85;9.57;;;20.80;74.50;;;;;;6186819;23;20021;-79
2022/09/10 16:41:13;;;;;;;11.52;9.15;;;20.80;74.30;;;;;;6184592;23;20059;-77
2022/09/10 16:43:40;;;;;;;11.65;9.57;;;20.80;74.00;;;;;;6187958;23;20028;-81
2022/09/10 16:46:08;;;;;;;14.13;9.90;;;20.80;74.00;;;;;;6187746;23;20087;-79
2022/09/10 16:48:35;;;;;;;11.77;8.82;;;20.80;73.90;;;;;;6161725;23;20021;-79
2022/09/10 16:51:12;;;;;;;14.65;9.27;;;20.80;73.80;;;;;;6188163;23;20301;-79
2022/09/10 16:53:39;;;;;;;11.30;9.18;;;20.80;73.80;;;;;;6186548;23;20036;-79
2022/09/10 17:44:16;;;;;;;13.10;7.40;;;20.60;73.80;;;;;;6161481;23;20025;-78
2022/09/10 17:46:43;;;;;;;11.13;5.68;;;20.60;73.80;;;;;;6187606;23;20083;-78
2022/09/10 17:49:12;;;;;;;14.98;6.80;;;20.60;73.80;;;;;;6161526;23;20464;-78
2022/09/10 17:51:38;;;;;;;14.27;5.85;;;20.60;73.90;;;;;;6187774;23;20017;-78
2022/09/10 17:54:04;;;;;;;13.77;5.50;;;20.70;74.10;;;;;;6187770;23;20313;-78
2022/09/10 17:56:30;;;;;;;14.68;6.25;;;20.70;74.30;;;;;;6187964;23;20048;-79
2022/09/10 17:59:01;;;;;;;13.82;5.60;;;20.70;74.40;;;;;;6186665;23;20021;-79
2022/09/10 18:01:32;;;;;;;10.82;5.43;;;20.70;74.50;;;;;;6187509;23;20086;-78
2022/09/10 18:03:58;;;;;;;8.68;4.40;;;20.70;74.60;;;;;;6187238;23;20032;-79
2022/09/10 18:06:26;;;;;;;7.88;4.20;;;20.70;74.60;;;;;;6187626;23;20013;-79
2022/09/10 18:08:59;;;;;;;14.40;4.90;;;20.70;74.60;;;;;;6187939;23;20024;-79
2022/09/10 18:11:27;;;;;;;15.30;5.38;;;20.70;74.60;;;;;;6187906;23;20053;-78
2022/09/10 18:13:54;;;;;;;11.70;4.22;;;20.70;74.70;;;;;;6187539;23;20028;-79
2022/09/10 18:16:23;;;;;;;7.38;3.28;;;20.70;74.70;;;;;;6159606;23;20440;-79
2022/09/10 18:18:54;;;;;;;12.68;4.38;;;20.70;74.90;;;;;;6160435;23;20028;-79
2022/09/10 18:21:22;;;;;;;13.43;3.88;;;20.70;75.00;;;;;;6187681;23;20017;-78
2022/09/10 18:23:54;;;;;;;15.98;4.30;;;20.70;75.10;;;;;;6187203;23;20020;-82
2022/09/10 18:26:22;;;;;;;13.05;3.75;;;20.70;75.00;;;;;;6186778;23;20302;-78
2022/09/10 18:29:06;;;;;;;15.18;4.72;;;20.70;75.10;;;;;;6186972;23;20410;-78
2022/09/10 18:31:37;;;;;;;13.18;4.50;;;20.70;75.10;;;;;;6187470;23;20095;-78
2022/09/10 18:34:05;;;;;;;10.07;4.50;;;20.80;75.20;;;;;;6161531;23;20413;-79
2022/09/10 18:54:40;;;;;;;16.13;13.18;;;20.80;74.70;;;;;;6176384;22;20024;-79
2022/09/10 18:57:05;;;;;;;20.10;15.55;;;20.80;73.60;;;;;;6219497;23;20067;-75
2022/09/10 18:59:33;;;;;;;19.05;14.98;;;20.70;72.80;;;;;;6219566;23;20031;-79
2022/09/10 19:01:58;;;;;;;17.05;15.30;;;20.60;72.60;;;;;;6218352;23;20025;-78
2022/09/10 19:04:27;;;;;;;17.27;15.57;;;20.40;72.80;;;;;;6219004;23;20469;-79
2022/09/10 19:06:54;;;;;;;21.00;16.40;;;20.30;72.90;;;;;;6167822;23;20029;-77
2022/09/10 19:09:22;;;;;;;18.10;16.20;;;20.30;73.10;;;;;;6168606;23;20025;-78
2022/09/10 19:11:51;;;;;;;17.65;15.90;;;20.10;73.10;;;;;;6193162;23;20012;-79
2022/09/10 19:14:29;;;;;;;18.35;16.38;;;20.00;73.30;;;;;;6193068;23;20283;-80
2022/09/10 19:16:56;;;;;;;18.00;15.90;;;20.00;74.10;;;;;;6219027;23;20095;-80
2022/09/10 19:19:27;;;;;;;18.80;16.30;;;19.90;73.80;;;;;;6218901;23;20013;-79
2022/09/10 19:21:58;;;;;;;17.75;15.95;;;19.80;73.90;;;;;;6218840;23;20404;-78
2022/09/10 19:24:25;;;;;;;18.67;16.77;;;19.80;74.10;;;;;;6193001;23;20414;-79
2022/09/10 19:26:51;;;;;;;19.05;17.10;;;19.70;74.10;;;;;;6192784;23;20023;-78
2022/09/10 19:29:17;;;;;;;19.23;17.33;;;19.60;74.20;;;;;;6192526;23;20016;-77
2022/09/10 19:31:45;;;;;;;19.13;17.08;;;19.60;74.30;;;;;;6219079;23;20004;-79
2022/09/10 19:34:12;;;;;;;20.08;18.05;;;19.60;74.40;;;;;;6168072;23;20417;-78
2022/09/10 19:36:38;;;;;;;20.08;18.08;;;19.50;74.30;;;;;;6167955;23;20017;-79
2022/09/10 19:39:09;;;;;;;19.40;17.40;;;19.50;74.50;;;;;;6219216;23;20023;-76
2022/09/10 19:41:37;;;;;;;20.70;18.60;;;19.40;74.80;;;;;;6218881;23;20013;-76
2022/09/10 19:44:05;;;;;;;21.75;19.42;;;19.40;75.00;;;;;;6192392;23;20095;-74
2022/09/10 19:46:32;;;;;;;20.33;18.15;;;19.30;75.30;;;;;;6218662;23;20023;-74
2022/09/10 19:48:59;;;;;;;21.35;16.65;;;19.30;75.60;;;;;;6218493;23;20103;-74
2022/09/10 19:51:30;;;;;;;19.05;17.05;;;19.30;75.90;;;;;;6219017;23;20012;-78
2022/09/10 19:53:57;;;;;;;18.50;16.02;;;19.20;76.20;;;;;;6192627;23;20024;-74
2022/09/10 19:56:28;;;;;;;17.45;15.45;;;19.30;76.20;;;;;;6192190;23;20020;-72
2022/09/10 19:58:55;;;;;;;19.35;16.60;;;19.40;76.20;;;;;;6218629;23;20444;-73
2022/09/10 20:01:23;;;;;;;19.23;16.42;;;19.50;76.10;;;;;;6218994;23;20028;-73
2022/09/10 20:03:50;;;;;;;19.00;17.10;;;19.50;76.00;;;;;;6219079;23;20013;-80
2022/09/10 20:06:18;;;;;;;17.05;15.35;;;19.70;76.60;;;;;;6192363;23;20017;-79
2022/09/10 20:08:46;;;;;;;17.85;16.08;;;19.70;75.80;;;;;;6219174;23;20421;-74
2022/09/10 20:11:21;;;;;;;17.13;15.52;;;19.70;75.70;;;;;;6218767;23;20334;-72
2022/09/10 20:13:48;;;;;;;19.85;15.75;;;19.80;75.60;;;;;;6192265;23;20020;-76
2022/09/10 20:16:15;;;;;;;18.45;16.52;;;19.80;75.50;;;;;;6193696;23;20054;-73
2022/09/10 20:18:41;;;;;;;15.70;14.15;;;19.80;75.40;;;;;;6218749;23;20329;-73
2022/09/10 20:21:14;;;;;;;17.63;15.80;;;19.90;75.30;;;;;;6218937;23;20020;-76
2022/09/10 20:23:46;;;;;;;15.60;14.15;;;19.90;75.30;;;;;;6219278;23;20027;-73
2022/09/10 20:26:17;;;;;;;17.33;14.55;;;19.90;75.20;;;;;;6219186;23;20052;-74
2022/09/10 20:28:44;;;;;;;16.90;14.48;;;19.90;75.10;;;;;;6218639;23;20052;-75
2022/09/10 20:31:12;;;;;;;14.65;13.18;;;19.90;75.00;;;;;;6219137;23;20310;-76
2022/09/10 20:33:41;;;;;;;16.38;13.85;;;20.00;75.00;;;;;;6192630;23;20025;-72
2022/09/10 20:36:11;;;;;;;14.38;12.48;;;19.90;74.90;;;;;;6192302;23;20027;-72
2022/09/10 20:38:37;;;;;;;14.20;12.43;;;20.00;75.00;;;;;;6218950;23;20052;-72
2022/09/10 20:41:07;;;;;;;14.52;12.23;;;20.00;75.00;;;;;;6218560;23;20047;-73
2022/09/10 20:43:33;;;;;;;14.45;11.27;;;20.00;75.00;;;;;;6218827;23;20134;-73
2022/09/10 20:45:59;;;;;;;13.27;11.02;;;20.00;75.00;;;;;;6218782;23;20059;-72
2022/09/10 20:48:25;;;;;;;11.95;10.75;;;20.00;74.90;;;;;;6218535;23;20312;-72
2022/09/10 20:50:56;;;;;;;10.63;9.73;;;20.10;75.00;;;;;;6218093;23;20027;-72
2022/09/10 20:53:22;;;;;;;11.35;10.10;;;20.10;75.00;;;;;;6218998;23;20021;-72
2022/09/10 20:55:48;;;;;;;10.90;9.65;;;20.10;75.00;;;;;;6218205;23;20031;-73
2022/09/10 20:58:15;;;;;;;10.43;9.35;;;20.10;74.90;;;;;;6218164;23;20091;-74
2022/09/10 21:00:42;;;;;;;10.57;9.57;;;20.10;75.00;;;;;;6192480;23;20021;-73
2022/09/10 21:03:13;;;;;;;11.07;9.35;;;20.10;75.00;;;;;;6218269;23;20095;-74
2022/09/10 21:05:39;;;;;;;11.48;8.57;;;20.10;74.90;;;;;;6218802;23;20360;-73
2022/09/10 21:08:05;;;;;;;9.80;8.80;;;20.10;74.90;;;;;;6218731;23;20020;-72
2022/09/10 21:10:36;;;;;;;10.35;9.07;;;20.10;75.00;;;;;;6218527;23;20318;-73
2022/09/10 21:13:03;;;;;;;12.65;8.80;;;20.10;74.90;;;;;;6217785;23;20476;-73
2022/09/10 21:15:30;;;;;;;9.80;8.80;;;20.10;74.90;;;;;;6217806;23;20016;-73
2022/09/10 21:17:57;;;;;;;9.98;8.70;;;20.10;74.90;;;;;;6218091;23;20413;-73
